createdAt,value
2023-08-14T00:01:26.973Z,18.00
2023-08-14T00:03:55.060Z,18.10
2023-08-14T00:06:22.883Z,18.10
2023-08-14T00:08:50.686Z,18.20
2023-08-14T00:11:18.654Z,18.20
2023-08-14T00:13:54.238Z,18.20
2023-08-14T00:16:22.262Z,18.30
2023-08-14T00:18:51.798Z,18.30
2023-08-14T00:21:20.014Z,18.30
2023-08-14T00:23:48.001Z,18.30
2023-08-14T00:26:16.064Z,18.30
2023-08-14T00:28:44.000Z,18.30
2023-08-14T00:31:11.968Z,18.20
2023-08-14T00:33:39.981Z,18.20
2023-08-14T00:36:09.183Z,18.20
2023-08-14T00:38:37.166Z,18.20
2023-08-14T00:41:05.221Z,18.20
2023-08-14T00:43:33.133Z,18.20
2023-08-14T00:46:02.968Z,18.10
2023-08-14T00:48:31.502Z,18.10
2023-08-14T00:50:59.719Z,18.00
2023-08-14T00:53:31.239Z,18.00
2023-08-14T00:56:01.572Z,18.00
2023-08-14T00:58:30.442Z,18.00
2023-08-14T01:01:00.148Z,18.00
2023-08-14T01:03:28.317Z,17.90
2023-08-14T01:05:56.203Z,17.90
2023-08-14T01:08:24.292Z,17.90
2023-08-14T01:11:00.603Z,17.90
2023-08-14T01:13:36.012Z,17.90
2023-08-14T01:16:08.144Z,17.90
2023-08-14T01:18:39.057Z,17.80
2023-08-14T01:21:14.756Z,17.90
2023-08-14T01:23:54.524Z,17.90
2023-08-14T01:26:24.729Z,17.90
2023-08-14T01:28:55.079Z,17.90
2023-08-14T01:31:23.174Z,18.00
2023-08-14T01:33:50.992Z,18.00
2023-08-14T01:36:25.005Z,18.00
2023-08-14T01:39:07.197Z,18.00
2023-08-14T01:41:43.931Z,18.00
2023-08-14T01:44:16.161Z,17.90
2023-08-14T01:46:46.262Z,17.80
2023-08-14T01:49:16.536Z,17.70
2023-08-14T01:51:45.739Z,17.60
2023-08-14T01:54:13.910Z,17.60
2023-08-14T01:56:43.377Z,17.60
2023-08-14T01:59:11.328Z,17.50
2023-08-14T02:01:39.303Z,17.50
2023-08-14T02:04:08.874Z,17.40
2023-08-14T02:06:36.679Z,17.40
2023-08-14T02:09:04.974Z,17.30
2023-08-14T02:11:33.017Z,17.30
2023-08-14T02:14:02.184Z,17.20
2023-08-14T02:16:30.204Z,17.20
2023-08-14T02:18:58.096Z,17.10
2023-08-14T02:21:25.998Z,17.10
2023-08-14T02:23:53.904Z,17.10
2023-08-14T02:26:21.766Z,17.10
2023-08-14T02:28:49.735Z,17.20
2023-08-14T02:31:20.045Z,17.20
2023-08-14T02:33:48.092Z,17.10
2023-08-14T02:36:16.208Z,17.10
2023-08-14T02:38:44.160Z,17.10
2023-08-14T02:41:14.391Z,17.10
2023-08-14T02:43:42.428Z,17.10
2023-08-14T02:46:10.408Z,17.10
2023-08-14T02:48:42.718Z,17.10
2023-08-14T02:51:10.957Z,17.10
2023-08-14T02:53:38.936Z,17.00
2023-08-14T02:56:06.829Z,17.00
2023-08-14T02:58:36.772Z,16.90
2023-08-14T03:01:05.361Z,16.90
2023-08-14T03:03:33.486Z,16.90
2023-08-14T03:06:02.737Z,16.90
2023-08-14T03:08:30.606Z,16.90
2023-08-14T03:10:58.714Z,16.80
2023-08-14T03:13:26.518Z,16.80
2023-08-14T03:15:54.567Z,16.70
2023-08-14T03:18:22.427Z,16.70
2023-08-14T03:20:51.448Z,16.60
2023-08-14T03:23:20.856Z,16.60
2023-08-14T03:25:48.762Z,16.50
2023-08-14T03:28:16.886Z,16.50
2023-08-14T03:30:45.565Z,16.50
2023-08-14T03:33:15.940Z,16.50
2023-08-14T03:35:43.932Z,16.50
2023-08-14T03:38:13.559Z,16.50
2023-08-14T03:40:42.800Z,16.50
2023-08-14T03:43:10.769Z,16.50
2023-08-14T03:45:38.724Z,16.60
2023-08-14T03:48:07.266Z,16.50
2023-08-14T03:50:35.218Z,16.60
2023-08-14T03:53:03.113Z,16.50
2023-08-14T03:55:31.071Z,16.50
2023-08-14T03:58:00.473Z,16.40
2023-08-14T04:00:28.392Z,16.40
2023-08-14T04:02:56.369Z,16.30
2023-08-14T04:05:24.426Z,16.30
2023-08-14T04:07:52.281Z,16.30
2023-08-14T04:10:20.437Z,16.30
2023-08-14T04:12:48.280Z,16.40
2023-08-14T04:15:19.051Z,16.40
2023-08-14T04:17:47.086Z,16.50
2023-08-14T04:20:15.179Z,16.50
2023-08-14T04:22:43.246Z,16.50
2023-08-14T04:25:11.466Z,16.70
2023-08-14T04:27:40.127Z,16.70
2023-08-14T04:30:09.587Z,16.70
2023-08-14T04:32:38.784Z,16.70
2023-08-14T04:35:08.073Z,16.70
2023-08-14T04:37:36.703Z,16.70
2023-08-14T04:40:06.031Z,16.70
2023-08-14T04:42:34.880Z,16.80
2023-08-14T04:45:03.465Z,16.80
2023-08-14T04:47:31.450Z,16.80
2023-08-14T04:50:02.362Z,16.80
2023-08-14T04:52:31.215Z,16.90
2023-08-14T04:54:59.180Z,16.90
2023-08-14T04:57:30.053Z,16.90
2023-08-14T04:59:58.233Z,16.90
2023-08-14T05:02:26.253Z,16.90
2023-08-14T05:04:55.630Z,17.00
2023-08-14T05:07:27.632Z,17.00
2023-08-14T05:09:56.066Z,17.00
2023-08-14T05:12:23.996Z,17.00
2023-08-14T05:14:54.718Z,17.10
2023-08-14T05:17:23.191Z,17.10
2023-08-14T05:19:52.229Z,17.10
2023-08-14T05:22:21.544Z,17.20
2023-08-14T05:24:50.879Z,17.30
2023-08-14T05:27:18.775Z,17.40
2023-08-14T05:29:48.758Z,17.50
2023-08-14T05:32:17.025Z,17.50
2023-08-14T05:34:45.256Z,17.60
2023-08-14T05:37:13.264Z,17.70
2023-08-14T05:39:41.351Z,17.70
2023-08-14T05:42:10.614Z,17.80
2023-08-14T05:44:37.467Z,17.90
2023-08-14T05:47:05.348Z,18.00
2023-08-14T05:49:33.189Z,18.00
2023-08-14T05:52:01.160Z,18.10
2023-08-14T05:54:29.000Z,18.30
2023-08-14T05:56:57.930Z,18.40
2023-08-14T05:59:27.111Z,18.50
2023-08-14T06:01:58.108Z,18.60
2023-08-14T06:04:27.735Z,18.80
2023-08-14T06:06:55.663Z,18.90
2023-08-14T06:09:24.588Z,19.00
2023-08-14T06:11:52.877Z,19.20
2023-08-14T06:14:21.167Z,19.30
2023-08-14T06:16:50.484Z,19.50
2023-08-14T06:19:18.289Z,19.60
2023-08-14T06:21:46.190Z,19.70
2023-08-14T06:24:14.153Z,19.70
2023-08-14T06:26:41.968Z,19.90
2023-08-14T06:29:09.920Z,20.00
2023-08-14T06:31:37.763Z,20.10
2023-08-14T06:34:07.598Z,20.30
2023-08-14T06:36:35.927Z,20.50
2023-08-14T06:39:03.864Z,20.60
2023-08-14T06:41:31.712Z,20.70
2023-08-14T06:44:05.747Z,20.90
2023-08-14T06:46:33.883Z,21.00
2023-08-14T06:49:02.013Z,21.10
2023-08-14T06:51:31.634Z,21.20
2023-08-14T06:53:59.631Z,21.30
2023-08-14T06:56:27.533Z,21.40
2023-08-14T06:58:55.438Z,21.50
2023-08-14T07:01:24.273Z,21.60
2023-08-14T07:03:52.422Z,21.80
2023-08-14T07:06:20.453Z,21.90
2023-08-14T07:08:49.646Z,22.00
2023-08-14T07:11:17.625Z,22.10
2023-08-14T07:13:45.900Z,22.30
2023-08-14T07:16:14.021Z,22.30
2023-08-14T07:18:41.910Z,22.40
2023-08-14T07:21:09.912Z,22.60
2023-08-14T07:23:38.298Z,22.60
2023-08-14T07:26:12.741Z,22.60
2023-08-14T07:28:41.012Z,22.70
2023-08-14T07:31:09.384Z,22.80
2023-08-14T07:33:37.735Z,22.80
2023-08-14T07:36:06.167Z,22.90
2023-08-14T07:38:34.443Z,22.90
2023-08-14T07:41:02.615Z,23.00
2023-08-14T07:43:31.920Z,23.20
2023-08-14T07:45:59.860Z,23.40
2023-08-14T07:48:27.898Z,23.50
2023-08-14T07:50:56.588Z,23.60
2023-08-14T07:53:24.502Z,23.80
2023-08-14T07:55:52.430Z,23.90
2023-08-14T07:58:20.424Z,24.00
2023-08-14T08:00:49.680Z,24.10
2023-08-14T08:03:17.506Z,24.30
2023-08-14T08:05:45.647Z,24.30
2023-08-14T08:08:13.507Z,24.50
2023-08-14T08:10:41.350Z,24.60
2023-08-14T08:13:10.232Z,24.80
2023-08-14T08:15:38.188Z,24.90
2023-08-14T08:18:07.627Z,25.10
2023-08-14T08:20:35.523Z,25.10
2023-08-14T08:23:05.166Z,25.20
2023-08-14T08:25:33.084Z,25.40
2023-08-14T08:28:00.993Z,25.40
2023-08-14T08:30:28.877Z,25.30
2023-08-14T08:33:03.170Z,25.40
2023-08-14T08:35:32.833Z,25.50
2023-08-14T08:38:00.846Z,25.70
2023-08-14T08:40:29.522Z,25.80
2023-08-14T08:42:59.407Z,26.00
2023-08-14T08:45:32.825Z,26.10
2023-08-14T08:48:03.592Z,26.20
2023-08-14T08:50:33.460Z,26.20
2023-08-14T08:53:01.641Z,26.20
2023-08-14T08:55:30.204Z,26.20
2023-08-14T08:57:59.584Z,26.20
2023-08-14T09:00:27.604Z,26.40
2023-08-14T09:02:55.761Z,26.50
2023-08-14T09:05:24.258Z,26.50
2023-08-14T09:07:53.539Z,26.60
2023-08-14T09:10:21.671Z,26.60
2023-08-14T09:12:49.569Z,26.60
2023-08-14T09:15:17.594Z,26.60
2023-08-14T09:17:45.847Z,26.60
2023-08-14T09:20:24.442Z,26.60
2023-08-14T09:23:00.836Z,26.50
2023-08-14T09:25:29.014Z,26.00
2023-08-14T09:27:58.018Z,25.70
2023-08-14T09:30:27.344Z,25.60
2023-08-14T09:32:56.648Z,25.60
2023-08-14T09:35:25.035Z,25.70
2023-08-14T09:37:53.699Z,25.70
2023-08-14T09:40:23.216Z,25.80
2023-08-14T09:42:51.699Z,26.00
2023-08-14T09:45:24.591Z,26.10
2023-08-14T09:47:53.352Z,26.10
2023-08-14T09:50:26.929Z,26.10
2023-08-14T09:52:57.857Z,25.90
2023-08-14T09:55:28.498Z,25.90
2023-08-14T09:57:57.704Z,26.10
2023-08-14T10:00:29.349Z,26.30
2023-08-14T10:02:58.751Z,26.40
2023-08-14T10:05:28.846Z,26.30
2023-08-14T10:07:57.976Z,26.10
2023-08-14T10:10:33.412Z,26.20
2023-08-14T10:13:06.232Z,25.70
2023-08-14T10:15:37.012Z,25.50
2023-08-14T10:18:11.491Z,25.50
2023-08-14T10:20:40.770Z,25.70
2023-08-14T10:23:10.170Z,25.70
2023-08-14T10:25:40.696Z,25.80
2023-08-14T10:28:09.686Z,25.80
2023-08-14T10:30:40.872Z,25.90
2023-08-14T10:33:09.902Z,26.00
2023-08-14T10:35:46.930Z,25.90
2023-08-14T10:38:18.167Z,25.90
2023-08-14T10:40:57.842Z,25.90
2023-08-14T10:43:30.322Z,26.00
2023-08-14T10:45:58.559Z,26.10
2023-08-14T10:48:26.697Z,26.00
2023-08-14T10:51:00.769Z,26.10
2023-08-14T10:53:30.795Z,26.20
2023-08-14T10:56:00.861Z,26.20
2023-08-14T10:58:39.811Z,26.10
2023-08-14T11:01:09.381Z,26.10
2023-08-14T11:03:57.004Z,26.20
2023-08-14T11:06:25.569Z,26.10
2023-08-14T11:09:00.702Z,26.00
2023-08-14T11:11:30.193Z,25.90
2023-08-14T11:13:58.486Z,25.90
2023-08-14T11:16:27.161Z,26.00
2023-08-14T11:18:58.713Z,25.90
2023-08-14T11:21:32.002Z,26.00
2023-08-14T11:24:00.659Z,26.10
2023-08-14T11:26:32.316Z,26.10
2023-08-14T11:29:00.145Z,26.10
2023-08-14T11:31:34.451Z,26.10
2023-08-14T11:34:07.572Z,26.10
2023-08-14T11:36:35.691Z,26.30
2023-08-14T11:39:03.665Z,26.50
2023-08-14T11:41:35.334Z,26.60
2023-08-14T11:44:04.474Z,26.60
2023-08-14T11:46:32.516Z,26.60
2023-08-14T11:49:00.821Z,26.90
2023-08-14T11:51:30.827Z,27.20
2023-08-14T11:53:58.802Z,27.40
2023-08-14T11:56:27.106Z,27.50
2023-08-14T11:59:07.136Z,27.60
2023-08-14T12:01:38.004Z,27.60
2023-08-14T12:04:08.063Z,27.60
2023-08-14T12:06:36.477Z,27.00
2023-08-14T12:09:09.026Z,27.50
2023-08-14T12:11:39.720Z,27.70
2023-08-14T12:14:09.844Z,27.20
2023-08-14T12:16:41.574Z,26.80
2023-08-14T12:19:11.093Z,26.70
2023-08-14T12:21:39.192Z,27.00
2023-08-14T12:24:07.888Z,26.80
2023-08-14T12:26:41.656Z,26.90
2023-08-14T12:29:11.349Z,26.60
2023-08-14T12:31:39.356Z,26.50
2023-08-14T12:34:07.842Z,26.10
2023-08-14T12:36:36.840Z,26.10
2023-08-14T12:39:05.091Z,26.10
2023-08-14T12:41:33.096Z,26.30
2023-08-14T12:44:01.002Z,26.50
2023-08-14T12:46:30.231Z,26.60
2023-08-14T12:48:58.128Z,26.60
2023-08-14T12:51:26.031Z,26.80
2023-08-14T12:53:53.816Z,26.50
2023-08-14T12:58:50.457Z,26.80
2023-08-14T13:01:23.680Z,27.20
2023-08-14T13:03:56.792Z,27.70
2023-08-14T13:06:27.812Z,27.80
2023-08-14T13:08:55.780Z,28.00
2023-08-14T13:11:23.906Z,28.10
2023-08-14T13:13:51.836Z,28.00
2023-08-14T13:16:20.498Z,27.70
2023-08-14T13:18:48.516Z,27.90
2023-08-14T13:21:17.679Z,28.00
2023-08-14T13:23:45.613Z,28.00
2023-08-14T13:26:26.592Z,28.10
2023-08-14T13:28:55.688Z,27.90
2023-08-14T13:31:23.601Z,27.90
2023-08-14T13:33:51.847Z,28.00
2023-08-14T13:36:21.064Z,28.10
2023-08-14T13:38:48.852Z,28.10
2023-08-14T13:41:16.710Z,28.20
2023-08-14T13:43:44.579Z,28.20
2023-08-14T13:46:12.505Z,28.10
2023-08-14T13:48:40.388Z,28.10
2023-08-14T13:51:08.334Z,28.20
2023-08-14T13:53:37.487Z,28.20
2023-08-14T13:56:05.613Z,28.30
2023-08-14T13:58:33.436Z,28.40
2023-08-14T14:01:02.835Z,28.40
2023-08-14T14:03:31.166Z,28.40
2023-08-14T14:05:59.098Z,28.50
2023-08-14T14:08:27.041Z,28.50
2023-08-14T14:10:56.237Z,28.50
2023-08-14T14:13:24.215Z,28.50
2023-08-14T14:15:52.145Z,28.50
2023-08-14T14:18:20.152Z,28.50
2023-08-14T14:20:50.063Z,28.40
2023-08-14T14:23:17.921Z,28.40
2023-08-14T14:25:45.725Z,28.50
2023-08-14T14:28:15.712Z,28.50
2023-08-14T14:30:43.702Z,28.50
2023-08-14T14:33:11.633Z,28.50
2023-08-14T14:35:39.596Z,28.40
2023-08-14T14:38:07.421Z,28.40
2023-08-14T14:40:35.397Z,28.40
2023-08-14T14:43:03.385Z,28.40
2023-08-14T14:45:35.293Z,28.40
2023-08-14T14:48:04.167Z,28.30
2023-08-14T14:50:32.155Z,28.30
2023-08-14T14:53:00.141Z,28.30
2023-08-14T14:55:29.065Z,28.30
2023-08-14T14:57:57.232Z,28.30
2023-08-14T15:00:26.033Z,28.30
2023-08-14T15:02:55.409Z,28.30
2023-08-14T15:07:54.250Z,28.30
2023-08-14T15:10:22.213Z,28.30
2023-08-14T15:12:50.090Z,28.30
2023-08-14T15:15:18.217Z,28.20
2023-08-14T15:17:46.028Z,28.20
2023-08-14T15:20:15.815Z,28.10
2023-08-14T15:22:44.252Z,28.00
2023-08-14T15:25:13.589Z,28.00
2023-08-14T15:27:41.471Z,27.90
2023-08-14T15:30:10.635Z,27.90
2023-08-14T15:32:38.773Z,27.80
2023-08-14T15:35:07.490Z,27.80
2023-08-14T15:37:36.853Z,27.80
2023-08-14T15:40:05.773Z,27.70
2023-08-14T15:42:32.729Z,27.70
2023-08-14T15:47:29.097Z,27.50
2023-08-14T15:49:56.903Z,27.50
2023-08-14T15:52:29.765Z,27.40
2023-08-14T15:54:59.806Z,27.30
2023-08-14T15:57:27.988Z,27.30
2023-08-14T15:59:56.124Z,27.20
2023-08-14T16:02:24.271Z,27.20
2023-08-14T16:04:53.036Z,27.20
2023-08-14T16:07:21.431Z,27.10
2023-08-14T16:09:51.062Z,27.10
2023-08-14T16:12:20.289Z,27.00
2023-08-14T16:14:48.321Z,27.00
2023-08-14T16:17:16.334Z,26.90
2023-08-14T16:19:44.375Z,26.80
2023-08-14T16:22:12.256Z,26.80
2023-08-14T16:24:40.329Z,26.70
2023-08-14T16:27:10.836Z,26.60
2023-08-14T16:29:40.026Z,26.60
2023-08-14T16:32:07.933Z,26.50
2023-08-14T16:34:35.907Z,26.50
2023-08-14T16:37:04.421Z,26.50
2023-08-14T16:39:32.430Z,26.40
2023-08-14T16:42:00.463Z,26.30
2023-08-14T16:44:28.341Z,26.20
2023-08-14T16:46:57.531Z,26.10
2023-08-14T16:49:25.413Z,26.10
2023-08-14T16:51:53.212Z,26.10
2023-08-14T16:54:21.060Z,26.10
2023-08-14T16:56:48.954Z,26.00
2023-08-14T16:59:16.778Z,26.00
2023-08-14T17:01:45.001Z,26.00
2023-08-14T17:04:14.221Z,26.00
2023-08-14T17:06:42.138Z,26.00
2023-08-14T17:09:14.193Z,26.00
2023-08-14T17:11:42.181Z,25.90
2023-08-14T17:14:10.012Z,25.80
2023-08-14T17:16:38.016Z,25.70
2023-08-14T17:19:06.191Z,25.60
2023-08-14T17:21:35.379Z,25.60
2023-08-14T17:24:03.246Z,25.50
2023-08-14T17:26:31.568Z,25.50
2023-08-14T17:28:59.461Z,25.50
2023-08-14T17:31:27.663Z,25.50
2023-08-14T17:33:55.557Z,25.40
2023-08-14T17:36:23.477Z,25.40
2023-08-14T17:38:52.807Z,25.30
2023-08-14T17:41:20.643Z,25.30
2023-08-14T17:43:48.489Z,25.30
2023-08-14T17:46:16.460Z,25.20
2023-08-14T17:48:44.581Z,25.20
2023-08-14T17:51:12.380Z,25.20
2023-08-14T17:53:40.171Z,25.10
2023-08-14T17:56:09.371Z,25.10
2023-08-14T17:58:37.158Z,25.00
2023-08-14T18:01:05.190Z,24.90
2023-08-14T18:03:33.259Z,24.90
2023-08-14T18:06:01.834Z,24.90
2023-08-14T18:08:29.696Z,24.80
2023-08-14T18:10:57.508Z,24.70
2023-08-14T18:13:26.747Z,24.70
2023-08-14T18:15:54.570Z,24.60
2023-08-14T18:18:22.455Z,24.50
2023-08-14T18:20:52.389Z,24.50
2023-08-14T18:23:21.349Z,24.40
2023-08-14T18:25:53.639Z,24.30
2023-08-14T18:28:21.686Z,24.30
2023-08-14T18:30:51.311Z,24.20
2023-08-14T18:33:19.508Z,24.10
2023-08-14T18:35:47.339Z,24.00
2023-08-14T18:38:15.315Z,23.90
2023-08-14T18:40:45.826Z,23.90
2023-08-14T18:43:13.763Z,23.90
2023-08-14T18:45:42.113Z,23.90
2023-08-14T18:48:11.340Z,23.80
2023-08-14T18:50:39.273Z,23.80
2023-08-14T18:53:07.605Z,23.70
2023-08-14T18:55:39.140Z,23.70
2023-08-14T18:58:07.099Z,23.60
2023-08-14T19:00:35.880Z,23.60
2023-08-14T19:03:03.739Z,23.50
2023-08-14T19:05:32.951Z,23.50
2023-08-14T19:08:01.101Z,23.40
2023-08-14T19:10:28.935Z,23.30
2023-08-14T19:12:56.892Z,23.30
2023-08-14T19:15:24.766Z,23.30
2023-08-14T19:17:52.727Z,23.30
2023-08-14T19:20:20.594Z,23.30
2023-08-14T19:22:51.001Z,23.20
2023-08-14T19:25:19.010Z,23.20
2023-08-14T19:27:46.844Z,23.20
2023-08-14T19:30:15.228Z,23.20
2023-08-14T19:32:43.813Z,23.20
2023-08-14T19:35:11.714Z,23.20
2023-08-14T19:37:39.534Z,23.20
2023-08-14T19:40:11.762Z,23.10
2023-08-14T19:42:40.645Z,23.10
2023-08-14T19:45:09.751Z,23.10
2023-08-14T19:47:37.586Z,23.00
2023-08-14T19:50:06.241Z,23.00
2023-08-14T19:52:34.124Z,23.00
2023-08-14T19:55:02.017Z,23.00
2023-08-14T19:57:31.202Z,22.90
2023-08-14T19:59:59.671Z,22.90
2023-08-14T20:02:28.535Z,22.90
2023-08-14T20:04:56.488Z,22.90
2023-08-14T20:07:24.665Z,22.80
2023-08-14T20:09:52.611Z,22.80
2023-08-14T20:12:20.446Z,22.70
2023-08-14T20:14:49.605Z,22.70
2023-08-14T20:17:17.777Z,22.70
2023-08-14T20:19:45.823Z,22.70
2023-08-14T20:22:13.626Z,22.60
2023-08-14T20:24:41.414Z,22.70
2023-08-14T20:27:09.285Z,22.60
2023-08-14T20:29:37.125Z,22.50
2023-08-14T20:32:06.982Z,22.50
2023-08-14T20:34:34.895Z,22.50
2023-08-14T20:37:02.808Z,22.50
2023-08-14T20:39:31.961Z,22.40
2023-08-14T20:41:59.834Z,22.40
2023-08-14T20:44:27.649Z,22.40
2023-08-14T20:46:55.505Z,22.40
2023-08-14T20:49:24.624Z,22.40
2023-08-14T20:51:52.404Z,22.40
2023-08-14T20:54:20.368Z,22.40
2023-08-14T20:56:48.223Z,22.40
2023-08-14T20:59:16.000Z,22.40
2023-08-14T21:01:44.040Z,22.40
2023-08-14T21:04:11.856Z,22.40
2023-08-14T21:06:41.088Z,22.40
2023-08-14T21:09:08.895Z,22.40
2023-08-14T21:11:36.785Z,22.40
2023-08-14T21:14:04.938Z,22.30
2023-08-14T21:16:32.782Z,22.30
2023-08-14T21:19:00.573Z,22.30
2023-08-14T21:21:28.374Z,22.30
2023-08-14T21:23:57.737Z,22.30
2023-08-14T21:26:25.597Z,22.30
2023-08-14T21:28:53.461Z,22.30
2023-08-14T21:31:21.323Z,22.30
2023-08-14T21:33:50.426Z,22.30
2023-08-14T21:36:20.156Z,22.30
2023-08-14T21:38:48.007Z,22.30
2023-08-14T21:41:17.123Z,22.20
2023-08-14T21:43:45.002Z,22.20
2023-08-14T21:46:13.000Z,22.20
2023-08-14T21:48:41.043Z,22.20
2023-08-14T21:51:08.859Z,22.20
2023-08-14T21:53:36.759Z,22.20
2023-08-14T21:56:04.599Z,22.10
2023-08-14T21:58:33.895Z,22.10
2023-08-14T22:01:02.522Z,22.10
2023-08-14T22:03:30.546Z,22.10
2023-08-14T22:06:01.976Z,22.10
2023-08-14T22:08:30.486Z,22.00
2023-08-14T22:10:58.735Z,22.00
2023-08-14T22:13:26.829Z,22.00
2023-08-14T22:15:55.998Z,22.00
2023-08-14T22:18:24.072Z,22.00
2023-08-14T22:20:54.993Z,22.00
2023-08-14T22:23:23.270Z,22.00
2023-08-14T22:25:51.280Z,22.00
2023-08-14T22:28:19.126Z,22.10
2023-08-14T22:30:46.898Z,21.90
2023-08-14T22:33:16.018Z,21.90
2023-08-14T22:35:53.665Z,21.90
2023-08-14T22:38:21.524Z,21.90
2023-08-14T22:40:50.704Z,21.80
2023-08-14T22:43:18.603Z,21.80
2023-08-14T22:45:46.529Z,21.80
2023-08-14T22:48:15.658Z,21.80
2023-08-14T22:50:44.990Z,21.80
2023-08-14T22:53:12.841Z,21.80
2023-08-14T22:55:40.634Z,21.80
2023-08-14T22:58:09.754Z,21.70
2023-08-14T23:00:37.621Z,21.70
2023-08-14T23:03:06.470Z,21.80
2023-08-14T23:05:35.703Z,21.80
2023-08-14T23:08:03.491Z,21.80
2023-08-14T23:10:31.374Z,21.80
2023-08-14T23:12:59.183Z,21.80
2023-08-14T23:15:27.035Z,21.70
2023-08-14T23:17:55.097Z,21.70
2023-08-14T23:20:22.914Z,21.80
2023-08-14T23:22:52.096Z,21.70
2023-08-14T23:25:19.906Z,21.80
2023-08-14T23:27:47.891Z,21.70
2023-08-14T23:30:15.853Z,21.70
2023-08-14T23:32:43.704Z,21.70
2023-08-14T23:35:11.798Z,21.70
2023-08-14T23:37:39.821Z,21.60
2023-08-14T23:40:10.413Z,21.60
2023-08-14T23:42:40.263Z,21.60
2023-08-14T23:45:08.888Z,21.60
2023-08-14T23:47:36.811Z,21.60
2023-08-14T23:50:05.135Z,21.60
2023-08-14T23:52:32.961Z,21.60
2023-08-14T23:55:00.804Z,21.70
2023-08-14T23:57:30.196Z,21.70
2023-08-14T23:59:58.015Z,21.50
